createdAt,value
2018-10-16T00:00:29.611Z,11.03
2018-10-16T00:01:10.238Z,11.95
2018-10-16T00:01:50.907Z,11.70
2018-10-16T00:02:31.269Z,11.45
2018-10-16T00:03:11.558Z,11.33
2018-10-16T00:04:04.441Z,10.90
2018-10-16T00:04:44.723Z,11.25
2018-10-16T00:05:26.225Z,10.50
2018-10-16T00:06:08.685Z,11.78
2018-10-16T00:06:49.130Z,12.50
2018-10-16T00:07:29.522Z,12.18
2018-10-16T00:08:10.297Z,11.40
2018-10-16T00:08:50.653Z,11.78
2018-10-16T00:09:31.092Z,11.28
2018-10-16T00:10:11.235Z,11.18
2018-10-16T00:10:51.476Z,11.85
2018-10-16T00:11:31.700Z,11.28
2018-10-16T00:12:12.083Z,12.05
2018-10-16T00:12:52.501Z,12.07
2018-10-16T00:13:32.827Z,11.35
2018-10-16T00:14:13.120Z,11.70
2018-10-16T00:14:53.497Z,13.28
2018-10-16T00:15:33.828Z,11.85
2018-10-16T00:16:20.610Z,11.30
2018-10-16T00:17:02.164Z,12.63
2018-10-16T00:17:42.513Z,12.33
2018-10-16T00:18:23.059Z,12.25
2018-10-16T00:19:03.738Z,12.28
2018-10-16T00:19:43.961Z,12.03
2018-10-16T00:20:24.178Z,12.50
2018-10-16T00:21:04.652Z,11.95
2018-10-16T00:21:44.875Z,12.30
2018-10-16T00:22:31.924Z,12.18
2018-10-16T00:23:12.364Z,12.15
2018-10-16T00:23:52.628Z,12.82
2018-10-16T00:24:32.887Z,12.78
2018-10-16T00:25:15.996Z,12.15
2018-10-16T00:25:56.301Z,12.35
2018-10-16T00:26:36.787Z,11.20
2018-10-16T00:27:17.003Z,12.45
2018-10-16T00:27:57.425Z,12.93
2018-10-16T00:28:37.949Z,13.62
2018-10-16T00:29:18.179Z,13.08
2018-10-16T00:29:58.676Z,12.82
2018-10-16T00:30:39.073Z,12.95
2018-10-16T00:31:19.264Z,12.18
2018-10-16T00:31:59.507Z,12.20
2018-10-16T00:32:40.592Z,12.88
2018-10-16T00:33:21.155Z,12.63
2018-10-16T00:34:01.681Z,12.82
2018-10-16T00:34:41.896Z,12.60
2018-10-16T00:35:22.257Z,12.18
2018-10-16T00:37:05.295Z,12.15
2018-10-16T00:37:45.014Z,11.95
2018-10-16T00:38:25.387Z,11.68
2018-10-16T00:39:08.443Z,12.07
2018-10-16T00:39:48.609Z,11.93
2018-10-16T00:40:28.890Z,11.80
2018-10-16T00:41:09.342Z,11.75
2018-10-16T00:41:54.583Z,11.05
2018-10-16T00:42:34.912Z,12.37
2018-10-16T00:43:15.143Z,11.70
2018-10-16T00:43:54.933Z,11.53
2018-10-16T00:44:35.540Z,13.28
2018-10-16T00:45:15.942Z,12.23
2018-10-16T00:45:56.592Z,11.90
2018-10-16T00:46:36.920Z,11.50
2018-10-16T00:47:17.108Z,12.78
2018-10-16T00:47:57.477Z,11.55
2018-10-16T00:48:37.754Z,12.68
2018-10-16T00:49:18.111Z,11.75
2018-10-16T00:49:58.445Z,12.85
2018-10-16T00:50:38.675Z,12.03
2018-10-16T00:51:19.178Z,11.83
2018-10-16T00:51:59.601Z,11.40
2018-10-16T00:52:39.945Z,12.05
2018-10-16T00:53:20.287Z,12.37
2018-10-16T00:54:00.870Z,11.43
2018-10-16T00:54:41.356Z,12.45
2018-10-16T00:55:22.292Z,12.07
2018-10-16T00:56:01.809Z,11.67
2018-10-16T00:56:42.163Z,11.10
2018-10-16T00:57:22.549Z,11.50
2018-10-16T00:58:02.788Z,11.28
2018-10-16T00:58:43.076Z,11.55
2018-10-16T00:59:22.830Z,12.03
2018-10-16T01:00:03.159Z,11.20
2018-10-16T01:00:43.476Z,12.03
2018-10-16T01:01:29.191Z,12.55
2018-10-16T01:02:09.527Z,11.48
2018-10-16T01:02:49.156Z,11.77
2018-10-16T01:03:29.608Z,11.28
2018-10-16T01:04:10.152Z,12.20
2018-10-16T01:04:50.658Z,11.28
2018-10-16T01:05:30.811Z,11.00
2018-10-16T01:06:11.250Z,11.18
2018-10-16T01:06:50.964Z,10.83
2018-10-16T01:07:31.464Z,11.90
2018-10-16T01:08:11.800Z,11.55
2018-10-16T01:08:52.138Z,11.28
2018-10-16T01:09:32.396Z,11.78
2018-10-16T01:10:13.331Z,11.30
2018-10-16T01:10:53.542Z,11.80
2018-10-16T01:11:33.860Z,12.00
2018-10-16T01:12:14.285Z,12.33
2018-10-16T01:12:54.724Z,11.15
2018-10-16T01:13:35.114Z,12.25
2018-10-16T01:14:15.275Z,11.63
2018-10-16T01:14:55.596Z,12.73
2018-10-16T01:15:36.144Z,12.45
2018-10-16T01:16:16.395Z,12.88
2018-10-16T01:16:56.737Z,13.70
2018-10-16T01:17:37.415Z,12.47
2018-10-16T01:18:17.624Z,12.63
2018-10-16T01:18:57.936Z,13.13
2018-10-16T01:19:38.088Z,13.18
2018-10-16T01:20:18.638Z,12.43
2018-10-16T01:20:58.961Z,13.22
2018-10-16T01:21:39.459Z,13.13
2018-10-16T01:22:19.704Z,13.13
2018-10-16T01:22:59.994Z,13.53
2018-10-16T01:23:40.208Z,13.43
2018-10-16T01:24:20.763Z,12.80
2018-10-16T01:25:01.141Z,13.78
2018-10-16T01:25:41.412Z,13.55
2018-10-16T01:26:21.740Z,13.05
2018-10-16T01:27:02.124Z,13.30
2018-10-16T01:27:42.368Z,13.53
2018-10-16T01:28:23.000Z,13.53
2018-10-16T01:29:03.671Z,13.38
2018-10-16T01:29:43.864Z,13.58
2018-10-16T01:30:24.217Z,14.25
2018-10-16T01:31:05.068Z,13.38
2018-10-16T01:31:45.988Z,13.53
2018-10-16T01:32:26.283Z,13.90
2018-10-16T01:33:06.709Z,13.48
2018-10-16T01:33:47.620Z,13.25
2018-10-16T01:34:27.923Z,13.65
2018-10-16T01:35:10.139Z,13.68
2018-10-16T01:35:50.717Z,14.13
2018-10-16T01:36:31.071Z,13.88
2018-10-16T01:37:11.460Z,13.93
2018-10-16T01:37:51.775Z,14.20
2018-10-16T01:38:32.041Z,14.28
2018-10-16T01:39:11.958Z,14.53
2018-10-16T01:39:52.358Z,14.33
2018-10-16T01:40:32.575Z,14.93
2018-10-16T01:41:12.968Z,13.80
2018-10-16T01:41:53.463Z,14.85
2018-10-16T01:42:33.677Z,14.47
2018-10-16T01:43:14.111Z,14.60
2018-10-16T01:43:54.526Z,14.43
2018-10-16T01:44:34.824Z,14.20
2018-10-16T01:45:14.516Z,13.77
2018-10-16T01:45:54.825Z,14.73
2018-10-16T01:46:35.025Z,13.77
2018-10-16T01:47:14.707Z,14.60
2018-10-16T01:47:54.319Z,13.83
2018-10-16T01:48:33.986Z,14.60
2018-10-16T01:49:13.564Z,14.10
2018-10-16T01:49:53.263Z,13.97
2018-10-16T01:50:33.757Z,14.60
2018-10-16T01:51:13.499Z,14.57
2018-10-16T01:51:53.808Z,14.43
2018-10-16T01:52:33.399Z,14.90
2018-10-16T01:53:12.996Z,13.90
2018-10-16T01:53:52.923Z,13.67
2018-10-16T01:54:32.697Z,15.07
2018-10-16T01:55:12.396Z,14.40
2018-10-16T01:55:52.183Z,14.10
2018-10-16T01:56:32.448Z,14.23
2018-10-16T01:57:12.747Z,13.78
2018-10-16T01:57:53.075Z,14.15
2018-10-16T01:58:32.757Z,13.93
2018-10-16T01:59:12.367Z,13.87
2018-10-16T01:59:52.183Z,12.98
2018-10-16T02:00:32.503Z,14.10
2018-10-16T02:01:12.240Z,14.00
2018-10-16T02:01:52.613Z,12.90
2018-10-16T02:02:33.336Z,13.35
2018-10-16T02:03:14.028Z,13.32
2018-10-16T02:03:54.196Z,13.15
2018-10-16T02:04:34.439Z,13.80
2018-10-16T02:05:14.692Z,13.62
2018-10-16T02:05:55.270Z,13.00
2018-10-16T02:06:35.743Z,13.68
2018-10-16T02:07:16.273Z,13.88
2018-10-16T02:07:56.606Z,13.48
2018-10-16T02:08:36.797Z,13.30
2018-10-16T02:09:17.015Z,13.05
2018-10-16T02:09:57.253Z,13.93
2018-10-16T02:10:37.803Z,13.85
2018-10-16T02:11:18.024Z,14.05
2018-10-16T02:11:58.222Z,14.43
2018-10-16T02:12:38.472Z,14.78
2018-10-16T02:13:18.853Z,14.55
2018-10-16T02:13:58.971Z,13.85
2018-10-16T02:14:39.364Z,14.65
2018-10-16T02:15:20.144Z,15.30
2018-10-16T02:16:00.324Z,15.03
2018-10-16T02:16:40.670Z,15.50
2018-10-16T02:17:21.038Z,15.50
2018-10-16T02:18:01.428Z,14.60
2018-10-16T02:18:41.776Z,14.33
2018-10-16T02:19:22.194Z,14.05
2018-10-16T02:20:02.525Z,14.53
2018-10-16T02:20:42.917Z,15.53
2018-10-16T02:21:23.232Z,14.73
2018-10-16T02:22:03.476Z,15.48
2018-10-16T02:22:43.724Z,15.40
2018-10-16T02:23:24.137Z,15.43
2018-10-16T02:24:04.749Z,14.95
2018-10-16T02:24:44.932Z,14.65
2018-10-16T02:25:25.145Z,14.87
2018-10-16T02:26:06.057Z,14.63
2018-10-16T02:26:46.421Z,15.25
2018-10-16T02:27:27.009Z,15.20
2018-10-16T02:28:07.813Z,14.95
2018-10-16T02:28:48.112Z,15.65
2018-10-16T02:29:29.106Z,15.98
2018-10-16T02:30:09.376Z,14.53
2018-10-16T02:30:49.764Z,14.80
2018-10-16T02:31:30.191Z,15.30
2018-10-16T02:32:10.508Z,15.53
2018-10-16T02:32:50.719Z,14.95
2018-10-16T02:33:31.003Z,14.83
2018-10-16T02:34:11.328Z,13.80
2018-10-16T02:34:51.503Z,14.43
2018-10-16T02:35:31.788Z,14.85
2018-10-16T02:36:12.165Z,15.28
2018-10-16T02:36:52.400Z,14.83
2018-10-16T02:37:32.734Z,15.08
2018-10-16T02:38:13.082Z,13.88
2018-10-16T02:38:53.482Z,14.50
2018-10-16T02:39:33.768Z,15.35
2018-10-16T02:40:14.313Z,14.65
2018-10-16T02:40:54.729Z,14.15
2018-10-16T02:41:35.320Z,14.95
2018-10-16T02:42:15.565Z,15.55
2018-10-16T02:42:55.727Z,14.90
2018-10-16T02:43:36.353Z,15.70
2018-10-16T02:44:16.504Z,13.60
2018-10-16T02:44:56.781Z,15.75
2018-10-16T02:45:37.073Z,14.85
2018-10-16T02:46:17.477Z,15.60
2018-10-16T02:46:58.000Z,14.78
2018-10-16T02:47:39.060Z,14.75
2018-10-16T02:48:19.504Z,14.68
2018-10-16T02:48:59.872Z,15.32
2018-10-16T02:49:40.148Z,14.53
2018-10-16T02:50:20.398Z,14.83
2018-10-16T02:51:00.688Z,14.58
2018-10-16T02:51:40.810Z,15.68
2018-10-16T02:52:21.073Z,15.70
2018-10-16T02:53:01.438Z,15.45
2018-10-16T02:53:41.917Z,14.33
2018-10-16T02:54:22.060Z,15.25
2018-10-16T02:55:02.386Z,14.93
2018-10-16T02:55:42.328Z,15.63
2018-10-16T02:56:22.815Z,14.98
2018-10-16T02:57:03.268Z,14.75
2018-10-16T02:57:43.756Z,14.78
2018-10-16T02:58:24.179Z,15.28
2018-10-16T02:59:04.362Z,14.70
2018-10-16T02:59:44.571Z,15.38
2018-10-16T03:00:25.027Z,15.35
2018-10-16T03:01:06.474Z,15.20
2018-10-16T03:01:46.657Z,14.50
2018-10-16T03:02:27.164Z,14.90
2018-10-16T03:03:07.523Z,14.95
2018-10-16T03:03:47.803Z,14.28
2018-10-16T03:04:28.019Z,15.28
2018-10-16T03:05:08.465Z,14.83
2018-10-16T03:05:48.618Z,15.53
2018-10-16T03:06:28.839Z,14.70
2018-10-16T03:07:09.413Z,14.58
2018-10-16T03:07:50.168Z,14.75
2018-10-16T03:08:30.488Z,14.38
2018-10-16T03:09:10.690Z,15.40
2018-10-16T03:09:51.050Z,15.03
2018-10-16T03:10:31.464Z,13.60
2018-10-16T03:11:11.603Z,15.20
2018-10-16T03:11:51.863Z,14.65
2018-10-16T03:12:32.055Z,14.58
2018-10-16T03:13:12.239Z,15.98
2018-10-16T03:13:52.390Z,15.08
2018-10-16T03:14:32.916Z,15.03
2018-10-16T03:15:13.722Z,14.73
2018-10-16T03:15:53.967Z,14.50
2018-10-16T03:16:34.336Z,14.78
2018-10-16T03:17:14.649Z,14.83
2018-10-16T03:17:55.053Z,14.98
2018-10-16T03:18:35.269Z,14.13
2018-10-16T03:19:15.590Z,14.58
2018-10-16T03:19:55.983Z,14.47
2018-10-16T03:20:36.859Z,14.98
2018-10-16T03:21:17.451Z,14.40
2018-10-16T03:21:57.724Z,14.53
2018-10-16T03:22:38.172Z,15.45
2018-10-16T03:23:17.801Z,14.70
2018-10-16T03:23:58.156Z,14.45
2018-10-16T03:24:38.376Z,14.75
2018-10-16T03:25:18.712Z,14.58
2018-10-16T03:25:58.384Z,15.28
2018-10-16T03:26:38.624Z,14.93
2018-10-16T03:27:19.032Z,13.43
2018-10-16T03:27:59.402Z,15.00
2018-10-16T03:28:39.612Z,14.75
2018-10-16T03:29:19.900Z,14.10
2018-10-16T03:29:59.508Z,13.83
2018-10-16T03:30:39.955Z,14.78
2018-10-16T03:31:19.880Z,14.37
2018-10-16T03:32:00.108Z,13.83
2018-10-16T03:32:41.712Z,13.10
2018-10-16T03:33:22.122Z,14.60
2018-10-16T03:34:02.307Z,14.70
2018-10-16T03:34:42.016Z,14.93
2018-10-16T03:35:22.244Z,14.78
2018-10-16T03:36:02.405Z,15.55
2018-10-16T03:36:42.761Z,14.05
2018-10-16T03:37:23.739Z,14.70
2018-10-16T03:38:04.092Z,13.28
2018-10-16T03:38:43.939Z,14.87
2018-10-16T03:39:23.688Z,14.80
2018-10-16T03:40:03.492Z,15.57
2018-10-16T03:40:43.850Z,14.65
2018-10-16T03:41:24.088Z,14.53
2018-10-16T03:42:04.338Z,14.73
2018-10-16T03:42:44.500Z,14.95
2018-10-16T03:43:24.790Z,15.70
2018-10-16T03:44:10.493Z,15.10
2018-10-16T03:44:50.644Z,15.05
2018-10-16T03:45:30.820Z,15.60
2018-10-16T03:46:11.246Z,16.15
2018-10-16T03:46:51.714Z,15.83
2018-10-16T03:47:32.012Z,16.62
2018-10-16T03:48:11.960Z,18.07
2018-10-16T03:48:52.201Z,16.75
2018-10-16T03:49:32.343Z,18.02
2018-10-16T03:50:12.934Z,17.02
2018-10-16T03:50:53.460Z,17.55
2018-10-16T03:51:33.790Z,17.50
2018-10-16T03:52:14.081Z,18.95
2018-10-16T03:52:54.318Z,17.62
2018-10-16T03:53:34.684Z,17.77
2018-10-16T03:54:14.844Z,17.23
2018-10-16T03:54:55.269Z,17.10
2018-10-16T03:55:35.682Z,17.82
2018-10-16T03:56:16.113Z,15.95
2018-10-16T03:56:56.357Z,18.30
2018-10-16T03:57:36.868Z,17.12
2018-10-16T03:58:17.172Z,17.05
2018-10-16T03:58:57.641Z,18.00
2018-10-16T03:59:37.935Z,17.02
2018-10-16T04:00:18.461Z,16.62
2018-10-16T04:00:58.781Z,18.20
2018-10-16T04:01:39.124Z,17.48
2018-10-16T04:02:19.670Z,17.82
2018-10-16T04:02:59.913Z,19.40
2018-10-16T04:03:40.433Z,20.37
2018-10-16T04:04:20.777Z,20.52
2018-10-16T04:05:01.068Z,20.20
2018-10-16T04:05:41.397Z,21.73
2018-10-16T04:06:23.055Z,23.05
2018-10-16T04:07:03.431Z,22.65
2018-10-16T04:07:43.777Z,22.48
2018-10-16T04:08:24.147Z,23.67
2018-10-16T04:09:05.293Z,24.45
2018-10-16T04:09:45.768Z,22.45
2018-10-16T04:10:26.408Z,25.08
2018-10-16T04:11:06.704Z,23.55
2018-10-16T04:11:46.893Z,24.92
2018-10-16T04:12:27.196Z,24.52
2018-10-16T04:13:07.600Z,23.12
2018-10-16T04:13:48.777Z,23.67
2018-10-16T04:14:29.182Z,21.90
2018-10-16T04:15:10.675Z,23.70
2018-10-16T04:15:51.048Z,22.60
2018-10-16T04:16:31.480Z,23.07
2018-10-16T04:17:11.877Z,22.17
2018-10-16T04:17:52.399Z,21.15
2018-10-16T04:18:32.784Z,21.07
2018-10-16T04:19:12.914Z,23.10
2018-10-16T04:19:53.695Z,22.17
2018-10-16T04:20:34.042Z,21.93
2018-10-16T04:21:14.803Z,21.65
2018-10-16T04:21:55.323Z,20.82
2018-10-16T04:22:35.596Z,20.85
2018-10-16T04:23:16.183Z,19.80
2018-10-16T04:23:56.562Z,19.40
2018-10-16T04:24:36.860Z,19.25
2018-10-16T04:25:17.225Z,18.95
2018-10-16T04:25:57.619Z,19.35
2018-10-16T04:26:37.976Z,18.92
2018-10-16T04:27:18.344Z,19.07
2018-10-16T04:27:58.652Z,18.82
2018-10-16T04:28:38.840Z,18.10
2018-10-16T04:29:19.320Z,16.67
2018-10-16T04:29:59.767Z,17.50
2018-10-16T04:30:40.000Z,17.25
2018-10-16T04:31:20.733Z,16.35
2018-10-16T04:32:00.913Z,17.15
2018-10-16T04:32:41.236Z,17.73
2018-10-16T04:33:21.748Z,15.60
2018-10-16T04:34:02.042Z,17.05
2018-10-16T04:34:42.365Z,15.72
2018-10-16T04:35:22.846Z,16.65
2018-10-16T04:36:03.412Z,16.20
2018-10-16T04:36:43.755Z,15.40
2018-10-16T04:37:24.052Z,16.02
2018-10-16T04:38:04.412Z,16.82
2018-10-16T04:38:44.296Z,16.80
2018-10-16T04:39:24.579Z,15.60
2018-10-16T04:40:04.975Z,16.05
2018-10-16T04:40:45.413Z,16.40
2018-10-16T04:41:25.886Z,15.35
2018-10-16T04:42:06.452Z,16.48
2018-10-16T04:42:46.852Z,16.85
2018-10-16T04:43:27.623Z,16.57
2018-10-16T04:44:07.813Z,16.77
2018-10-16T04:44:48.371Z,16.67
2018-10-16T04:45:28.764Z,16.85
2018-10-16T04:46:08.743Z,17.57
2018-10-16T04:46:49.318Z,16.48
2018-10-16T04:47:29.565Z,17.32
2018-10-16T04:48:09.776Z,15.63
2018-10-16T04:48:50.024Z,16.90
2018-10-16T04:49:30.242Z,17.37
2018-10-16T04:50:11.580Z,17.70
2018-10-16T04:50:52.113Z,17.70
2018-10-16T04:51:32.421Z,17.70
2018-10-16T04:52:12.623Z,17.10
2018-10-16T04:52:52.825Z,18.48
2018-10-16T04:53:32.948Z,18.05
2018-10-16T04:54:13.096Z,17.73
2018-10-16T04:54:53.793Z,18.50
2018-10-16T04:55:33.819Z,18.37
2018-10-16T04:56:13.983Z,18.48
2018-10-16T04:56:54.289Z,17.80
2018-10-16T04:57:34.576Z,17.52
2018-10-16T04:58:14.723Z,17.25
2018-10-16T04:58:54.949Z,17.20
2018-10-16T04:59:35.196Z,18.10
2018-10-16T05:00:16.031Z,18.40
2018-10-16T05:00:55.593Z,17.97
2018-10-16T05:01:35.866Z,16.85
2018-10-16T05:02:15.462Z,19.23
2018-10-16T05:02:57.787Z,18.62
2018-10-16T05:03:37.375Z,18.77
2018-10-16T05:04:18.090Z,18.70
2018-10-16T05:04:58.429Z,18.45
2018-10-16T05:05:38.542Z,17.90
2018-10-16T05:06:18.504Z,18.83
2018-10-16T05:06:58.392Z,18.73
2018-10-16T05:07:38.068Z,18.07
2018-10-16T05:08:17.891Z,18.50
2018-10-16T05:08:57.620Z,18.43
2018-10-16T05:09:37.507Z,18.27
2018-10-16T05:10:17.160Z,18.43
2018-10-16T05:10:56.885Z,19.07
2018-10-16T05:11:40.816Z,18.53
2018-10-16T05:12:20.517Z,19.60
2018-10-16T05:13:00.357Z,19.27
2018-10-16T05:13:40.863Z,18.75
2018-10-16T05:14:20.703Z,19.03
2018-10-16T05:15:00.262Z,18.77
2018-10-16T05:15:39.864Z,19.53
2018-10-16T05:16:20.133Z,18.77
2018-10-16T05:16:59.842Z,19.10
2018-10-16T05:17:39.591Z,19.10
2018-10-16T05:18:19.399Z,18.63
2018-10-16T05:18:59.305Z,18.73
2018-10-16T05:19:39.560Z,18.87
2018-10-16T05:20:19.650Z,19.00
2018-10-16T05:20:59.300Z,18.57
2018-10-16T05:21:39.274Z,18.10
2018-10-16T05:22:19.302Z,18.10
2018-10-16T05:22:59.776Z,18.63
2018-10-16T05:23:39.661Z,18.93
2018-10-16T05:24:19.755Z,18.17
2018-10-16T05:24:59.470Z,19.13
2018-10-16T05:25:39.164Z,18.60
2018-10-16T05:26:18.890Z,18.57
2018-10-16T05:26:58.736Z,18.67
2018-10-16T05:27:38.453Z,18.33
2018-10-16T05:28:18.102Z,18.60
2018-10-16T05:28:58.041Z,19.20
2018-10-16T05:29:37.737Z,18.30
2018-10-16T05:30:18.046Z,17.13
2018-10-16T05:30:57.877Z,17.37
2018-10-16T05:31:38.061Z,17.90
2018-10-16T05:32:17.819Z,18.37
2018-10-16T05:32:57.834Z,18.40
2018-10-16T05:33:37.373Z,17.70
2018-10-16T05:34:16.981Z,17.80
2018-10-16T05:34:56.729Z,17.77
2018-10-16T05:35:36.255Z,18.07
2018-10-16T05:36:15.949Z,18.53
2018-10-16T05:36:55.542Z,17.67
2018-10-16T05:37:35.104Z,17.73
2018-10-16T05:38:14.758Z,18.40
2018-10-16T05:38:56.783Z,18.03
2018-10-16T05:39:36.454Z,18.60
2018-10-16T05:40:16.114Z,18.63
2018-10-16T05:40:55.998Z,18.53
2018-10-16T05:41:35.625Z,17.67
2018-10-16T05:42:15.445Z,17.53
2018-10-16T05:42:57.874Z,17.87
2018-10-16T05:43:37.660Z,17.00
2018-10-16T05:44:17.531Z,17.83
2018-10-16T05:44:57.424Z,17.63
2018-10-16T05:45:40.436Z,18.70
2018-10-16T05:46:20.735Z,16.57
2018-10-16T05:47:00.359Z,18.07
2018-10-16T05:47:41.949Z,17.73
2018-10-16T05:48:21.760Z,17.33
2018-10-16T05:49:01.468Z,17.43
2018-10-16T05:49:41.057Z,17.43
2018-10-16T05:50:20.896Z,18.30
2018-10-16T05:51:00.573Z,18.33
2018-10-16T05:51:40.703Z,18.90
2018-10-16T05:52:20.602Z,18.80
2018-10-16T05:53:00.244Z,16.93
2018-10-16T05:53:40.988Z,18.43
2018-10-16T05:54:21.361Z,17.67
2018-10-16T05:55:01.212Z,19.63
2018-10-16T05:55:41.470Z,19.12
2018-10-16T05:56:21.292Z,18.23
2018-10-16T05:57:00.884Z,18.10
2018-10-16T05:57:40.653Z,18.93
2018-10-16T05:58:20.448Z,17.87
2018-10-16T05:59:00.288Z,17.10
2018-10-16T05:59:40.037Z,17.80
2018-10-16T06:00:31.288Z,18.23
2018-10-16T06:01:10.856Z,20.00
2018-10-16T06:01:50.581Z,19.03
2018-10-16T06:02:30.215Z,19.03
2018-10-16T06:03:10.616Z,18.13
2018-10-16T06:03:50.623Z,18.35
2018-10-16T06:04:30.389Z,20.13
2018-10-16T06:05:10.521Z,18.03
2018-10-16T06:05:50.807Z,18.63
2018-10-16T06:06:30.416Z,18.47
2018-10-16T06:07:10.148Z,18.83
2018-10-16T06:07:50.204Z,18.10
2018-10-16T06:08:30.188Z,16.87
2018-10-16T06:09:09.956Z,18.33
2018-10-16T06:09:49.764Z,18.23
2018-10-16T06:10:29.494Z,17.43
2018-10-16T06:11:09.297Z,17.80
2018-10-16T06:11:49.167Z,17.50
2018-10-16T06:12:28.825Z,17.70
2018-10-16T06:13:08.596Z,16.43
2018-10-16T06:13:48.568Z,16.90
2018-10-16T06:14:28.356Z,17.37
2018-10-16T06:15:09.126Z,17.57
2018-10-16T06:15:49.166Z,18.37
2018-10-16T06:16:29.686Z,17.32
2018-10-16T06:17:09.870Z,16.37
2018-10-16T06:17:49.672Z,15.53
2018-10-16T06:18:29.498Z,16.07
2018-10-16T06:19:09.564Z,17.03
2018-10-16T06:19:49.236Z,17.33
2018-10-16T06:20:28.877Z,16.23
2018-10-16T06:21:08.517Z,19.07
2018-10-16T06:21:48.562Z,16.10
2018-10-16T06:22:28.587Z,15.70
2018-10-16T06:23:08.943Z,16.00
2018-10-16T06:23:49.698Z,16.17
2018-10-16T06:24:30.119Z,17.73
2018-10-16T06:25:10.998Z,16.80
2018-10-16T06:25:50.800Z,17.37
2018-10-16T06:26:31.117Z,16.10
2018-10-16T06:27:12.169Z,15.75
2018-10-16T06:27:52.748Z,16.20
2018-10-16T06:28:33.127Z,16.02
2018-10-16T06:29:12.951Z,16.50
2018-10-16T06:29:53.517Z,16.05
2018-10-16T06:30:33.644Z,16.20
2018-10-16T06:31:14.013Z,15.70
2018-10-16T06:31:54.737Z,16.02
2018-10-16T06:32:35.121Z,15.80
2018-10-16T06:33:16.305Z,15.83
2018-10-16T06:33:56.919Z,15.65
2018-10-16T06:34:37.340Z,16.25
2018-10-16T06:35:17.749Z,15.63
2018-10-16T06:35:58.377Z,16.20
2018-10-16T06:36:38.122Z,15.48
2018-10-16T06:37:18.397Z,17.20
2018-10-16T06:37:58.808Z,15.78
2018-10-16T06:38:39.161Z,15.85
2018-10-16T06:39:19.504Z,15.05
2018-10-16T06:40:00.188Z,15.93
2018-10-16T06:40:40.542Z,19.77
2018-10-16T06:41:20.825Z,15.30
2018-10-16T06:42:01.386Z,17.48
2018-10-16T06:42:41.603Z,16.10
2018-10-16T06:43:22.200Z,14.93
2018-10-16T06:44:02.849Z,16.52
2018-10-16T06:44:43.278Z,15.20
2018-10-16T06:45:23.634Z,16.73
2018-10-16T06:46:04.144Z,15.38
2018-10-16T06:46:44.541Z,15.93
2018-10-16T06:47:25.555Z,15.53
2018-10-16T06:48:07.182Z,16.12
2018-10-16T06:48:47.946Z,17.20
2018-10-16T06:49:28.482Z,16.02
2018-10-16T06:50:10.732Z,16.55
2018-10-16T06:50:51.277Z,16.20
2018-10-16T06:51:31.634Z,16.50
2018-10-16T06:52:11.952Z,15.78
2018-10-16T06:52:52.578Z,15.50
2018-10-16T06:53:33.194Z,17.65
2018-10-16T06:54:13.114Z,15.70
2018-10-16T06:54:53.522Z,16.57
2018-10-16T06:55:33.068Z,14.63
2018-10-16T06:56:13.231Z,15.60
2018-10-16T06:56:53.890Z,16.93
2018-10-16T06:57:33.758Z,16.10
2018-10-16T06:58:14.113Z,15.13
2018-10-16T06:58:54.381Z,16.35
2018-10-16T06:59:34.832Z,16.23
2018-10-16T07:00:15.467Z,16.02
2018-10-16T07:00:55.667Z,15.93
2018-10-16T07:01:35.925Z,14.40
2018-10-16T07:02:16.164Z,16.00
2018-10-16T07:02:56.508Z,16.50
2018-10-16T07:03:36.192Z,16.83
2018-10-16T07:04:15.821Z,17.60
2018-10-16T07:04:56.485Z,17.30
2018-10-16T07:05:36.849Z,16.85
2018-10-16T07:06:17.450Z,17.85
2018-10-16T07:06:58.211Z,18.55
2018-10-16T07:07:38.475Z,17.67
2018-10-16T07:08:19.025Z,18.05
2018-10-16T07:08:59.347Z,19.15
2018-10-16T07:09:39.776Z,20.05
2018-10-16T07:10:20.316Z,18.95
2018-10-16T07:11:00.600Z,18.77
2018-10-16T07:11:40.866Z,24.82
2018-10-16T07:12:21.263Z,18.45
2018-10-16T07:13:01.591Z,20.08
2018-10-16T07:13:41.828Z,20.90
2018-10-16T07:14:22.262Z,18.52
2018-10-16T07:15:02.802Z,18.05
2018-10-16T07:15:43.665Z,18.37
2018-10-16T07:16:24.060Z,19.50
2018-10-16T07:17:04.474Z,18.50
2018-10-16T07:17:44.808Z,18.45
2018-10-16T07:18:25.280Z,18.92
2018-10-16T07:19:06.475Z,18.70
2018-10-16T07:19:46.565Z,19.00
2018-10-16T07:20:26.853Z,20.27
2018-10-16T07:21:07.469Z,18.92
2018-10-16T07:21:48.512Z,19.05
2018-10-16T07:22:28.908Z,19.48
2018-10-16T07:23:09.141Z,19.32
2018-10-16T07:23:50.022Z,19.62
2018-10-16T07:24:30.328Z,20.80
2018-10-16T07:25:10.478Z,19.83
2018-10-16T07:25:51.051Z,18.35
2018-10-16T07:26:31.272Z,19.45
2018-10-16T07:27:11.438Z,20.32
2018-10-16T07:27:51.832Z,19.35
2018-10-16T07:28:32.240Z,20.60
2018-10-16T07:29:12.595Z,20.25
2018-10-16T07:29:52.984Z,21.30
2018-10-16T07:30:33.485Z,19.87
2018-10-16T07:31:13.887Z,20.55
2018-10-16T07:31:53.662Z,21.47
2018-10-16T07:32:33.250Z,20.53
2018-10-16T07:33:13.348Z,21.73
2018-10-16T07:33:53.090Z,20.57
2018-10-16T07:34:32.855Z,20.82
2018-10-16T07:35:13.156Z,20.60
2018-10-16T07:35:53.604Z,19.65
2018-10-16T07:36:34.113Z,20.77
2018-10-16T07:37:14.258Z,21.48
2018-10-16T07:37:54.692Z,21.73
2018-10-16T07:38:35.171Z,22.40
2018-10-16T07:39:14.941Z,22.73
2018-10-16T07:39:54.823Z,23.07
2018-10-16T07:40:35.112Z,22.73
2018-10-16T07:41:15.339Z,21.40
2018-10-16T07:41:56.002Z,21.87
2018-10-16T07:42:36.193Z,23.00
2018-10-16T07:43:16.491Z,23.77
2018-10-16T07:43:57.056Z,21.77
2018-10-16T07:44:36.800Z,22.10
2018-10-16T07:45:17.584Z,22.82
2018-10-16T07:45:57.780Z,22.17
2018-10-16T07:46:38.163Z,22.25
2018-10-16T07:47:25.220Z,22.15
2018-10-16T07:48:05.666Z,22.58
2018-10-16T07:48:46.403Z,22.20
2018-10-16T07:49:26.608Z,22.73
2018-10-16T07:50:09.282Z,21.75
2018-10-16T07:50:50.091Z,22.52
2018-10-16T07:51:30.340Z,22.82
2018-10-16T07:52:10.855Z,23.20
2018-10-16T07:52:51.319Z,22.10
2018-10-16T07:53:31.752Z,22.80
2018-10-16T07:54:11.838Z,22.67
2018-10-16T07:54:52.262Z,22.35
2018-10-16T07:55:32.865Z,21.80
2018-10-16T07:56:13.680Z,21.97
2018-10-16T07:56:53.934Z,21.93
2018-10-16T07:57:34.200Z,23.55
2018-10-16T07:58:14.347Z,22.17
2018-10-16T07:58:54.717Z,23.45
2018-10-16T07:59:35.029Z,21.87
2018-10-16T08:00:15.153Z,22.82
2018-10-16T08:00:55.772Z,23.25
2018-10-16T08:01:36.372Z,22.35
2018-10-16T08:02:16.727Z,21.27
2018-10-16T08:02:56.999Z,22.17
2018-10-16T08:03:37.180Z,22.02
2018-10-16T08:04:18.040Z,21.02
2018-10-16T08:04:58.242Z,23.18
2018-10-16T08:05:38.476Z,22.77
2018-10-16T08:06:19.386Z,20.85
2018-10-16T08:06:59.740Z,23.12
2018-10-16T08:07:40.994Z,22.67
2018-10-16T08:08:21.217Z,22.15
2018-10-16T08:09:01.389Z,22.55
2018-10-16T08:09:41.638Z,22.30
2018-10-16T08:10:22.030Z,22.35
2018-10-16T08:11:02.621Z,21.42
2018-10-16T08:11:47.786Z,25.12
2018-10-16T08:12:28.359Z,25.25
2018-10-16T08:13:08.668Z,25.32
2018-10-16T08:13:49.087Z,25.97
2018-10-16T08:14:29.225Z,25.10
2018-10-16T08:15:10.220Z,25.75
2018-10-16T08:15:50.809Z,25.52
2018-10-16T08:16:31.380Z,22.00
2018-10-16T08:17:11.659Z,23.22
2018-10-16T08:17:52.492Z,21.90
2018-10-16T08:18:32.805Z,20.62
2018-10-16T08:19:12.672Z,21.00
2018-10-16T08:19:53.248Z,19.62
2018-10-16T08:20:33.455Z,19.50
2018-10-16T08:21:13.842Z,19.85
2018-10-16T08:21:54.405Z,20.57
2018-10-16T08:22:34.727Z,20.72
2018-10-16T08:23:15.144Z,21.17
2018-10-16T08:23:55.604Z,19.82
2018-10-16T08:24:35.832Z,20.77
2018-10-16T08:25:16.060Z,21.40
2018-10-16T08:25:56.457Z,21.97
2018-10-16T08:26:36.631Z,19.92
2018-10-16T08:27:16.974Z,20.55
2018-10-16T08:27:57.483Z,23.18
2018-10-16T08:28:37.872Z,23.90
2018-10-16T08:29:18.160Z,22.40
2018-10-16T08:29:58.459Z,21.73
2018-10-16T08:30:38.828Z,21.90
2018-10-16T08:31:19.565Z,20.27
2018-10-16T08:31:59.995Z,22.80
2018-10-16T08:32:40.672Z,21.35
2018-10-16T08:33:20.997Z,21.12
2018-10-16T08:34:01.515Z,21.05
2018-10-16T08:34:42.124Z,20.37
2018-10-16T08:35:22.369Z,19.75
2018-10-16T08:36:02.781Z,20.30
2018-10-16T08:36:43.122Z,21.73
2018-10-16T08:39:02.964Z,20.40
2018-10-16T08:39:43.927Z,16.93
2018-10-16T08:40:24.322Z,17.75
2018-10-16T08:41:06.885Z,21.12
2018-10-16T08:42:55.669Z,18.87
2018-10-16T08:43:48.921Z,17.70
2018-10-16T08:44:39.779Z,19.85